FLX9911 SBPJ-SBCY
Flight info
| Callsign | FLX9911 |
|---|---|
| Flight time | 2h 16m |
| Altitude | 38000 |
| Route | EGDOD DCT SIGAX DCT EQUAL |
| Aircraft | CRJ7/M-SDFGIRWY/S |
Departure
| Time | 2026-04-20 13:25 |
|---|---|
| Airport | Brigadeiro Lysias Rodrigues Airport (SBPJ) |
Arrival
| Time | 2026-04-20 15:41 |
|---|---|
| Airport | Várzea Grande–Marechal Rondon International Airport (SBCY) |
| Time | Latitude | Longitude | Altitude | Speed | Heading |
|---|---|---|---|---|---|
| 2026-04-20 12:58 | -10.29489 | -48.35727 | 748 ft | 0 kts | 214° |
| 2026-04-20 13:11 | -10.29469 | -48.35712 | 744 ft | 4 kts | 224° |
| 2026-04-20 13:11 | -10.29454 | -48.35691 | 747 ft | 4 kts | 248° |
| 2026-04-20 13:11 | -10.29454 | -48.35668 | 745 ft | 2 kts | 302° |
| 2026-04-20 13:11 | -10.29455 | -48.35667 | 746 ft | 1 kts | 303° |
| 2026-04-20 13:17 | -10.29443 | -48.35685 | 746 ft | 6 kts | 304° |
| 2026-04-20 13:17 | -10.29400 | -48.35750 | 748 ft | 10 kts | 303° |
| 2026-04-20 13:17 | -10.29370 | -48.35796 | 748 ft | 9 kts | 304° |
| 2026-04-20 13:18 | -10.29330 | -48.35814 | 748 ft | 11 kts | 13° |
| 2026-04-20 13:18 | -10.29254 | -48.35768 | 747 ft | 15 kts | 33° |
| 2026-04-20 13:18 | -10.29232 | -48.35753 | 747 ft | 0 kts | 33° |
| 2026-04-20 13:19 | -10.29231 | -48.35753 | 747 ft | 0 kts | 33° |
| 2026-04-20 13:20 | -10.29229 | -48.35751 | 747 ft | 2 kts | 33° |
| 2026-04-20 13:21 | -10.29200 | -48.35732 | 747 ft | 8 kts | 33° |
| 2026-04-20 13:21 | -10.29137 | -48.35732 | 747 ft | 12 kts | 321° |
| 2026-04-20 13:21 | -10.29082 | -48.35810 | 747 ft | 15 kts | 303° |
| 2026-04-20 13:21 | -10.29018 | -48.35910 | 747 ft | 19 kts | 303° |
| 2026-04-20 13:22 | -10.28937 | -48.36030 | 745 ft | 22 kts | 302° |
| 2026-04-20 13:22 | -10.28875 | -48.36127 | 747 ft | 16 kts | 304° |
| 2026-04-20 13:22 | -10.28806 | -48.36232 | 750 ft | 19 kts | 302° |
| 2026-04-20 13:22 | -10.28729 | -48.36354 | 750 ft | 22 kts | 303° |
| 2026-04-20 13:23 | -10.28638 | -48.36491 | 748 ft | 25 kts | 304° |
| 2026-04-20 13:23 | -10.28588 | -48.36638 | 750 ft | 10 kts | 294° |
| 2026-04-20 13:23 | -10.28556 | -48.36643 | 750 ft | 5 kts | 45° |
| 2026-04-20 13:23 | -10.28560 | -48.36609 | 750 ft | 7 kts | 122° |
| 2026-04-20 13:24 | -10.28563 | -48.36605 | 746 ft | 0 kts | 124° |
| 2026-04-20 13:24 | -10.28693 | -48.36413 | 749 ft | 78 kts | 124° |
| 2026-04-20 13:24 | -10.29145 | -48.35717 | 752 ft | 154 kts | 125° |
| 2026-04-20 13:24 | -10.29831 | -48.34683 | 884 ft | 205 kts | 124° |
| 2026-04-20 13:25 | -10.30647 | -48.33428 | 1389 ft | 219 kts | 124° |
| 2026-04-20 13:25 | -10.31535 | -48.32123 | 2055 ft | 212 kts | 125° |
| 2026-04-20 13:25 | -10.32376 | -48.30945 | 3043 ft | 204 kts | 127° |
| 2026-04-20 13:25 | -10.33256 | -48.29782 | 3666 ft | 210 kts | 128° |
| 2026-04-20 13:26 | -10.34149 | -48.28550 | 4122 ft | 222 kts | 121° |
| 2026-04-20 13:26 | -10.35016 | -48.27241 | 4724 ft | 227 kts | 133° |
| 2026-04-20 13:26 | -10.36453 | -48.26591 | 5296 ft | 235 kts | 174° |
| 2026-04-20 13:26 | -10.38073 | -48.26870 | 6060 ft | 236 kts | 189° |
| 2026-04-20 13:27 | -10.39689 | -48.27028 | 6853 ft | 233 kts | 175° |
| 2026-04-20 13:27 | -10.41296 | -48.26862 | 7521 ft | 231 kts | 169° |
| 2026-04-20 13:27 | -10.42862 | -48.26611 | 8103 ft | 230 kts | 168° |
| 2026-04-20 13:27 | -10.44444 | -48.26349 | 8682 ft | 230 kts | 168° |
| 2026-04-20 13:28 | -10.46027 | -48.26100 | 9250 ft | 230 kts | 169° |
| 2026-04-20 13:28 | -10.47611 | -48.25882 | 9819 ft | 230 kts | 170° |
| 2026-04-20 13:28 | -10.49204 | -48.25665 | 10321 ft | 231 kts | 170° |
| 2026-04-20 13:28 | -10.50795 | -48.25452 | 10820 ft | 231 kts | 170° |
| 2026-04-20 13:29 | -10.52399 | -48.25332 | 11301 ft | 233 kts | 182° |
| 2026-04-20 13:29 | -10.54000 | -48.25571 | 11809 ft | 233 kts | 189° |
| 2026-04-20 13:29 | -10.55591 | -48.25899 | 12308 ft | 233 kts | 189° |
| 2026-04-20 13:29 | -10.57180 | -48.26209 | 12809 ft | 232 kts | 188° |
| 2026-04-20 13:30 | -10.58766 | -48.26470 | 13296 ft | 231 kts | 186° |
| 2026-04-20 13:30 | -10.60356 | -48.26702 | 13773 ft | 230 kts | 186° |
| 2026-04-20 13:30 | -10.61935 | -48.26937 | 14184 ft | 230 kts | 186° |
| 2026-04-20 13:30 | -10.63517 | -48.27177 | 14586 ft | 229 kts | 187° |
| 2026-04-20 13:31 | -10.65097 | -48.27417 | 14981 ft | 229 kts | 187° |
| 2026-04-20 13:31 | -10.66655 | -48.27651 | 15369 ft | 229 kts | 187° |
| 2026-04-20 13:31 | -10.68232 | -48.27887 | 15764 ft | 229 kts | 187° |
| 2026-04-20 13:31 | -10.69828 | -48.28130 | 16132 ft | 228 kts | 187° |
| 2026-04-20 13:32 | -10.71375 | -48.28366 | 16501 ft | 228 kts | 188° |
| 2026-04-20 13:32 | -10.72953 | -48.28606 | 16873 ft | 228 kts | 188° |
| 2026-04-20 13:32 | -10.74518 | -48.28844 | 17237 ft | 228 kts | 188° |
| 2026-04-20 13:32 | -10.76088 | -48.29082 | 17592 ft | 228 kts | 188° |
| 2026-04-20 13:33 | -10.77650 | -48.29319 | 17938 ft | 227 kts | 188° |
| 2026-04-20 13:33 | -10.79217 | -48.29555 | 18273 ft | 227 kts | 188° |
| 2026-04-20 13:33 | -10.80784 | -48.29793 | 18556 ft | 227 kts | 188° |
| 2026-04-20 13:33 | -10.82340 | -48.30030 | 18826 ft | 227 kts | 188° |
| 2026-04-20 13:34 | -10.83894 | -48.30266 | 19087 ft | 226 kts | 188° |
| 2026-04-20 13:34 | -10.85452 | -48.30501 | 19339 ft | 226 kts | 188° |
| 2026-04-20 13:34 | -10.87008 | -48.30736 | 19597 ft | 225 kts | 188° |
| 2026-04-20 13:34 | -10.88560 | -48.30972 | 19858 ft | 225 kts | 188° |
| 2026-04-20 13:35 | -10.90104 | -48.31207 | 20104 ft | 225 kts | 188° |
| 2026-04-20 13:35 | -10.91651 | -48.31442 | 20340 ft | 224 kts | 188° |
| 2026-04-20 13:35 | -10.93175 | -48.31670 | 20559 ft | 224 kts | 188° |
| 2026-04-20 13:35 | -10.94732 | -48.31908 | 20791 ft | 224 kts | 189° |
| 2026-04-20 13:36 | -10.96119 | -48.32538 | 20901 ft | 226 kts | 225° |
| 2026-04-20 13:36 | -10.96921 | -48.33897 | 21072 ft | 226 kts | 248° |
| 2026-04-20 13:36 | -10.97459 | -48.35396 | 21305 ft | 225 kts | 251° |
| 2026-04-20 13:36 | -10.97960 | -48.36903 | 21523 ft | 224 kts | 251° |
| 2026-04-20 13:37 | -10.98470 | -48.38404 | 21725 ft | 224 kts | 249° |
| 2026-04-20 13:37 | -10.99025 | -48.39885 | 21911 ft | 224 kts | 247° |
| 2026-04-20 13:37 | -10.99614 | -48.41345 | 22101 ft | 223 kts | 247° |
| 2026-04-20 13:37 | -11.00202 | -48.42810 | 22284 ft | 223 kts | 247° |
| 2026-04-20 13:38 | -11.00787 | -48.44276 | 22457 ft | 223 kts | 247° |
| 2026-04-20 13:38 | -11.01366 | -48.45737 | 22614 ft | 223 kts | 247° |
| 2026-04-20 13:38 | -11.01948 | -48.47203 | 22783 ft | 223 kts | 247° |
| 2026-04-20 13:38 | -11.02531 | -48.48670 | 22939 ft | 223 kts | 246° |
| 2026-04-20 13:39 | -11.03112 | -48.50132 | 23107 ft | 223 kts | 247° |
| 2026-04-20 13:39 | -11.03695 | -48.51600 | 23263 ft | 223 kts | 246° |
| 2026-04-20 13:39 | -11.04268 | -48.53049 | 23407 ft | 223 kts | 246° |
| 2026-04-20 13:39 | -11.04852 | -48.54515 | 23559 ft | 223 kts | 246° |
| 2026-04-20 13:40 | -11.05434 | -48.55982 | 23668 ft | 223 kts | 246° |
| 2026-04-20 13:40 | -11.06015 | -48.57450 | 23786 ft | 223 kts | 246° |
| 2026-04-20 13:40 | -11.06596 | -48.58916 | 23905 ft | 223 kts | 246° |
| 2026-04-20 13:40 | -11.07179 | -48.60386 | 23935 ft | 231 kts | 246° |
| 2026-04-20 13:41 | -11.07814 | -48.61979 | 23808 ft | 252 kts | 246° |
| 2026-04-20 13:41 | -11.08495 | -48.63685 | 23856 ft | 266 kts | 246° |
| 2026-04-20 13:41 | -11.09199 | -48.65465 | 24009 ft | 276 kts | 246° |
| 2026-04-20 13:41 | -11.09922 | -48.67307 | 24219 ft | 283 kts | 246° |
| 2026-04-20 13:42 | -11.10666 | -48.69178 | 24474 ft | 288 kts | 246° |
| 2026-04-20 13:42 | -11.12185 | -48.73017 | 25059 ft | 295 kts | 246° |
| 2026-04-20 13:42 | -11.12953 | -48.74960 | 25376 ft | 298 kts | 246° |
| 2026-04-20 13:43 | -11.13731 | -48.76923 | 25710 ft | 300 kts | 246° |
| 2026-04-20 13:43 | -11.14512 | -48.78898 | 26049 ft | 301 kts | 246° |
| 2026-04-20 13:43 | -11.15294 | -48.80874 | 26384 ft | 302 kts | 245° |
| 2026-04-20 13:43 | -11.16081 | -48.82864 | 26721 ft | 303 kts | 245° |
| 2026-04-20 13:44 | -11.16869 | -48.84851 | 27057 ft | 303 kts | 245° |
| 2026-04-20 13:44 | -11.17658 | -48.86848 | 27399 ft | 304 kts | 245° |
| 2026-04-20 13:44 | -11.18450 | -48.88851 | 27740 ft | 304 kts | 245° |
| 2026-04-20 13:44 | -11.19240 | -48.90850 | 28080 ft | 304 kts | 245° |
| 2026-04-20 13:45 | -11.20029 | -48.92845 | 28421 ft | 304 kts | 245° |
| 2026-04-20 13:45 | -11.20806 | -48.94816 | 28748 ft | 304 kts | 245° |
| 2026-04-20 13:45 | -11.21594 | -48.96806 | 29060 ft | 304 kts | 245° |
| 2026-04-20 13:45 | -11.22382 | -48.98807 | 29369 ft | 304 kts | 244° |
| 2026-04-20 13:46 | -11.23171 | -49.00803 | 29680 ft | 304 kts | 244° |
| 2026-04-20 13:46 | -11.23960 | -49.02797 | 29986 ft | 303 kts | 244° |
| 2026-04-20 13:46 | -11.24732 | -49.04753 | 30242 ft | 303 kts | 244° |
| 2026-04-20 13:46 | -11.25519 | -49.06748 | 30482 ft | 303 kts | 244° |
| 2026-04-20 13:47 | -11.26310 | -49.08751 | 30720 ft | 303 kts | 244° |
| 2026-04-20 13:47 | -11.27094 | -49.10738 | 30957 ft | 303 kts | 244° |
| 2026-04-20 13:47 | -11.27868 | -49.12706 | 31185 ft | 303 kts | 245° |
| 2026-04-20 13:47 | -11.28656 | -49.14700 | 31388 ft | 303 kts | 245° |
| 2026-04-20 13:48 | -11.29440 | -49.16687 | 31613 ft | 303 kts | 245° |
| 2026-04-20 13:48 | -11.30225 | -49.18683 | 31834 ft | 303 kts | 245° |
| 2026-04-20 13:48 | -11.31013 | -49.20678 | 32030 ft | 303 kts | 245° |
| 2026-04-20 13:48 | -11.31798 | -49.22668 | 32237 ft | 303 kts | 245° |
| 2026-04-20 13:49 | -11.32585 | -49.24673 | 32440 ft | 303 kts | 245° |
| 2026-04-20 13:49 | -11.33374 | -49.26678 | 32636 ft | 303 kts | 245° |
| 2026-04-20 13:49 | -11.34160 | -49.28669 | 32828 ft | 304 kts | 245° |
| 2026-04-20 13:49 | -11.34936 | -49.30642 | 33004 ft | 304 kts | 245° |
| 2026-04-20 13:50 | -11.35730 | -49.32661 | 33199 ft | 304 kts | 245° |
| 2026-04-20 13:50 | -11.36507 | -49.34634 | 33367 ft | 304 kts | 245° |
| 2026-04-20 13:50 | -11.37294 | -49.36636 | 33539 ft | 304 kts | 245° |
| 2026-04-20 13:50 | -11.38082 | -49.38638 | 33695 ft | 304 kts | 245° |
| 2026-04-20 13:51 | -11.38868 | -49.40635 | 33865 ft | 304 kts | 245° |
| 2026-04-20 13:51 | -11.39654 | -49.42642 | 34022 ft | 305 kts | 245° |
| 2026-04-20 13:51 | -11.40445 | -49.44647 | 34154 ft | 305 kts | 245° |
| 2026-04-20 13:51 | -11.41233 | -49.46654 | 34281 ft | 305 kts | 245° |
| 2026-04-20 13:52 | -11.42017 | -49.48656 | 34406 ft | 305 kts | 245° |
| 2026-04-20 13:52 | -11.42805 | -49.50665 | 34528 ft | 305 kts | 245° |
| 2026-04-20 13:52 | -11.43595 | -49.52673 | 34647 ft | 305 kts | 245° |
| 2026-04-20 13:52 | -11.44382 | -49.54676 | 34762 ft | 305 kts | 245° |
| 2026-04-20 13:53 | -11.45169 | -49.56687 | 34880 ft | 305 kts | 246° |
| 2026-04-20 13:53 | -11.45959 | -49.58690 | 34981 ft | 305 kts | 245° |
| 2026-04-20 13:53 | -11.46749 | -49.60700 | 35090 ft | 305 kts | 246° |
| 2026-04-20 13:53 | -11.47535 | -49.62714 | 35195 ft | 305 kts | 246° |
| 2026-04-20 13:54 | -11.49114 | -49.66735 | 35387 ft | 306 kts | 246° |
| 2026-04-20 13:54 | -11.50690 | -49.70766 | 35573 ft | 306 kts | 246° |
| 2026-04-20 13:55 | -11.52270 | -49.74801 | 35754 ft | 306 kts | 246° |
| 2026-04-20 13:55 | -11.53847 | -49.78830 | 35919 ft | 307 kts | 246° |
| 2026-04-20 13:56 | -11.54627 | -49.80821 | 36051 ft | 303 kts | 246° |
| 2026-04-20 13:56 | -11.55403 | -49.82804 | 36287 ft | 297 kts | 246° |
| 2026-04-20 13:56 | -11.56169 | -49.84761 | 36523 ft | 290 kts | 246° |
| 2026-04-20 13:56 | -11.56896 | -49.86622 | 36751 ft | 282 kts | 246° |
| 2026-04-20 13:57 | -11.57613 | -49.88449 | 36983 ft | 272 kts | 246° |
| 2026-04-20 13:57 | -11.58300 | -49.90208 | 37200 ft | 261 kts | 247° |
| 2026-04-20 13:57 | -11.58955 | -49.91882 | 37339 ft | 251 kts | 246° |
| 2026-04-20 13:57 | -11.59585 | -49.93497 | 37415 ft | 239 kts | 246° |
| 2026-04-20 13:58 | -11.60200 | -49.95066 | 37201 ft | 242 kts | 246° |
| 2026-04-20 13:58 | -11.60909 | -49.96812 | 35637 ft | 301 kts | 245° |
| 2026-04-20 13:58 | -11.61775 | -49.98920 | 35116 ft | 324 kts | 246° |
| 2026-04-20 13:58 | -11.62594 | -50.01057 | 35273 ft | 324 kts | 246° |
| 2026-04-20 13:59 | -11.63420 | -50.03195 | 35414 ft | 323 kts | 246° |
| 2026-04-20 13:59 | -11.64255 | -50.05325 | 35562 ft | 323 kts | 246° |
| 2026-04-20 13:59 | -11.65091 | -50.07453 | 35693 ft | 322 kts | 246° |
| 2026-04-20 13:59 | -11.65923 | -50.09590 | 35822 ft | 322 kts | 246° |
| 2026-04-20 14:00 | -11.66752 | -50.11715 | 35948 ft | 322 kts | 246° |
| 2026-04-20 14:00 | -11.67567 | -50.13804 | 36064 ft | 321 kts | 246° |
| 2026-04-20 14:00 | -11.68392 | -50.15922 | 36190 ft | 321 kts | 246° |
| 2026-04-20 14:00 | -11.69215 | -50.18028 | 36307 ft | 320 kts | 246° |
| 2026-04-20 14:01 | -11.70037 | -50.20136 | 36420 ft | 319 kts | 246° |
| 2026-04-20 14:01 | -11.70855 | -50.22241 | 36547 ft | 318 kts | 247° |
| 2026-04-20 14:01 | -11.71666 | -50.24327 | 36664 ft | 316 kts | 247° |
| 2026-04-20 14:01 | -11.72479 | -50.26409 | 36785 ft | 315 kts | 247° |
| 2026-04-20 14:02 | -11.73284 | -50.28482 | 36908 ft | 313 kts | 247° |
| 2026-04-20 14:02 | -11.74085 | -50.30540 | 37023 ft | 311 kts | 247° |
| 2026-04-20 14:02 | -11.74878 | -50.32572 | 37148 ft | 308 kts | 247° |
| 2026-04-20 14:02 | -11.75665 | -50.34598 | 37265 ft | 305 kts | 247° |
| 2026-04-20 14:03 | -11.76442 | -50.36605 | 37377 ft | 302 kts | 247° |
| 2026-04-20 14:03 | -11.77214 | -50.38588 | 37501 ft | 299 kts | 247° |
| 2026-04-20 14:03 | -11.77976 | -50.40539 | 37622 ft | 294 kts | 247° |
| 2026-04-20 14:03 | -11.78721 | -50.42462 | 37734 ft | 290 kts | 248° |
| 2026-04-20 14:04 | -11.79448 | -50.44334 | 37847 ft | 285 kts | 248° |
| 2026-04-20 14:04 | -11.80154 | -50.46148 | 37920 ft | 281 kts | 248° |
| 2026-04-20 14:04 | -11.80868 | -50.47996 | 37959 ft | 278 kts | 248° |
| 2026-04-20 14:04 | -11.81578 | -50.49825 | 37965 ft | 275 kts | 248° |
| 2026-04-20 14:05 | -11.82280 | -50.51624 | 37968 ft | 272 kts | 248° |
| 2026-04-20 14:05 | -11.82972 | -50.53405 | 37967 ft | 268 kts | 248° |
| 2026-04-20 14:05 | -11.83650 | -50.55163 | 37968 ft | 263 kts | 248° |
| 2026-04-20 14:05 | -11.84317 | -50.56883 | 37973 ft | 258 kts | 248° |
| 2026-04-20 14:06 | -11.84973 | -50.58569 | 37965 ft | 252 kts | 248° |
| 2026-04-20 14:06 | -11.85397 | -50.59664 | 37963 ft | 247 kts | 248° |
| 2026-04-20 14:06 | -11.86013 | -50.61264 | 37957 ft | 237 kts | 248° |
| 2026-04-20 14:06 | -11.86836 | -50.63395 | 37161 ft | 261 kts | 247° |
| 2026-04-20 14:07 | -11.87258 | -50.64444 | 36673 ft | 278 kts | 246° |
| 2026-04-20 14:07 | -11.88017 | -50.66250 | 36750 ft | 269 kts | 245° |
| 2026-04-20 14:07 | -11.88672 | -50.67921 | 37351 ft | 239 kts | 249° |
| 2026-04-20 14:07 | -11.89231 | -50.69498 | 37229 ft | 242 kts | 249° |
| 2026-04-20 14:08 | -11.89849 | -50.71255 | 36283 ft | 279 kts | 248° |
| 2026-04-20 14:08 | -11.90551 | -50.73079 | 36468 ft | 267 kts | 244° |
| 2026-04-20 14:08 | -11.91250 | -50.74712 | 37040 ft | 241 kts | 246° |
| 2026-04-20 14:08 | -11.91870 | -50.76267 | 37157 ft | 230 kts | 244° |
| 2026-04-20 14:09 | -11.92579 | -50.77759 | 36780 ft | 241 kts | 241° |
| 2026-04-20 14:09 | -11.93454 | -50.79363 | 35971 ft | 273 kts | 236° |
| 2026-04-20 14:09 | -11.94260 | -50.81056 | 36280 ft | 253 kts | 253° |
| 2026-04-20 14:09 | -11.94658 | -50.82744 | 36560 ft | 244 kts | 256° |
| 2026-04-20 14:10 | -11.95039 | -50.84469 | 36261 ft | 253 kts | 253° |
| 2026-04-20 14:10 | -11.95533 | -50.86184 | 36060 ft | 257 kts | 248° |
| 2026-04-20 14:10 | -11.96192 | -50.87906 | 35955 ft | 258 kts | 245° |
| 2026-04-20 14:10 | -11.96887 | -50.89557 | 35962 ft | 255 kts | 245° |
| 2026-04-20 14:11 | -11.97583 | -50.91207 | 35985 ft | 251 kts | 245° |
| 2026-04-20 14:11 | -11.98240 | -50.92843 | 35973 ft | 248 kts | 246° |
| 2026-04-20 14:11 | -11.98863 | -50.94467 | 35969 ft | 243 kts | 246° |
| 2026-04-20 14:11 | -11.99467 | -50.96057 | 35963 ft | 237 kts | 247° |
| 2026-04-20 14:12 | -12.00038 | -50.97598 | 35949 ft | 228 kts | 247° |
| 2026-04-20 14:12 | -12.00607 | -50.99138 | 35480 ft | 247 kts | 246° |
| 2026-04-20 14:12 | -12.01317 | -51.00973 | 34174 ft | 308 kts | 245° |
| 2026-04-20 14:12 | -12.02153 | -51.03083 | 34011 ft | 317 kts | 245° |
| 2026-04-20 14:13 | -12.02937 | -51.05073 | 34784 ft | 293 kts | 245° |
| 2026-04-20 14:13 | -12.03670 | -51.06952 | 35289 ft | 277 kts | 246° |
| 2026-04-20 14:13 | -12.04374 | -51.08763 | 35545 ft | 274 kts | 246° |
| 2026-04-20 14:13 | -12.05087 | -51.10599 | 35500 ft | 283 kts | 246° |
| 2026-04-20 14:14 | -12.05827 | -51.12495 | 35424 ft | 290 kts | 246° |
| 2026-04-20 14:14 | -12.06573 | -51.14408 | 35566 ft | 288 kts | 246° |
| 2026-04-20 14:14 | -12.07300 | -51.16274 | 35808 ft | 283 kts | 246° |
| 2026-04-20 14:14 | -12.08027 | -51.18137 | 35962 ft | 283 kts | 246° |
| 2026-04-20 14:15 | -12.08761 | -51.20023 | 36005 ft | 287 kts | 246° |
| 2026-04-20 14:15 | -12.09502 | -51.21927 | 36044 ft | 289 kts | 246° |
| 2026-04-20 14:15 | -12.10242 | -51.23831 | 36185 ft | 288 kts | 246° |
| 2026-04-20 14:15 | -12.10981 | -51.25729 | 36317 ft | 287 kts | 246° |
| 2026-04-20 14:16 | -12.11722 | -51.27631 | 36408 ft | 288 kts | 246° |
| 2026-04-20 14:16 | -12.12463 | -51.29532 | 36474 ft | 289 kts | 247° |
| 2026-04-20 14:16 | -12.13208 | -51.31447 | 36548 ft | 290 kts | 246° |
| 2026-04-20 14:16 | -12.13954 | -51.33362 | 36653 ft | 290 kts | 247° |
| 2026-04-20 14:17 | -12.14696 | -51.35270 | 36756 ft | 289 kts | 247° |
| 2026-04-20 14:17 | -12.15442 | -51.37186 | 36841 ft | 290 kts | 247° |
| 2026-04-20 14:17 | -12.16188 | -51.39103 | 36903 ft | 291 kts | 247° |
| 2026-04-20 14:17 | -12.16936 | -51.41023 | 36970 ft | 292 kts | 247° |
| 2026-04-20 14:18 | -12.17689 | -51.42954 | 37052 ft | 292 kts | 247° |
| 2026-04-20 14:18 | -12.18437 | -51.44878 | 37141 ft | 292 kts | 247° |
| 2026-04-20 14:18 | -12.19188 | -51.46809 | 37232 ft | 292 kts | 247° |
| 2026-04-20 14:18 | -12.19938 | -51.48736 | 37295 ft | 293 kts | 247° |
| 2026-04-20 14:19 | -12.20692 | -51.50673 | 37363 ft | 293 kts | 247° |
| 2026-04-20 14:19 | -12.21437 | -51.52586 | 37429 ft | 293 kts | 247° |
| 2026-04-20 14:19 | -12.22200 | -51.54547 | 37501 ft | 294 kts | 247° |
| 2026-04-20 14:19 | -12.22956 | -51.56491 | 37571 ft | 294 kts | 247° |
| 2026-04-20 14:20 | -12.23713 | -51.58436 | 37638 ft | 294 kts | 247° |
| 2026-04-20 14:20 | -12.24460 | -51.60355 | 37699 ft | 295 kts | 247° |
| 2026-04-20 14:20 | -12.25217 | -51.62297 | 37770 ft | 295 kts | 248° |
| 2026-04-20 14:20 | -12.25975 | -51.64248 | 37825 ft | 295 kts | 248° |
| 2026-04-20 14:21 | -12.26735 | -51.66202 | 37880 ft | 296 kts | 248° |
| 2026-04-20 14:21 | -12.27493 | -51.68153 | 37945 ft | 296 kts | 248° |
| 2026-04-20 14:21 | -12.28254 | -51.70111 | 38008 ft | 296 kts | 248° |
| 2026-04-20 14:21 | -12.29014 | -51.72065 | 38066 ft | 296 kts | 248° |
| 2026-04-20 14:22 | -12.29737 | -51.73923 | 38113 ft | 297 kts | 248° |
| 2026-04-20 14:22 | -12.30528 | -51.75958 | 38164 ft | 297 kts | 248° |
| 2026-04-20 14:22 | -12.31292 | -51.77924 | 38220 ft | 297 kts | 248° |
| 2026-04-20 14:22 | -12.32055 | -51.79884 | 38277 ft | 297 kts | 248° |
| 2026-04-20 14:23 | -12.32773 | -51.81733 | 38319 ft | 297 kts | 248° |
| 2026-04-20 14:23 | -12.33528 | -51.83673 | 38357 ft | 298 kts | 248° |
| 2026-04-20 14:23 | -12.34293 | -51.85642 | 38394 ft | 298 kts | 248° |
| 2026-04-20 14:23 | -12.35062 | -51.87624 | 38343 ft | 302 kts | 248° |
| 2026-04-20 14:24 | -12.35842 | -51.89635 | 38191 ft | 307 kts | 248° |
| 2026-04-20 14:24 | -12.36633 | -51.91676 | 38167 ft | 308 kts | 248° |
| 2026-04-20 14:24 | -12.37421 | -51.93709 | 38270 ft | 305 kts | 248° |
| 2026-04-20 14:24 | -12.38196 | -51.95714 | 38360 ft | 303 kts | 248° |
| 2026-04-20 14:25 | -12.39750 | -51.99741 | 38299 ft | 306 kts | 248° |
| 2026-04-20 14:25 | -12.41300 | -52.03768 | 38327 ft | 306 kts | 248° |
| 2026-04-20 14:26 | -12.42849 | -52.07801 | 38381 ft | 305 kts | 248° |
| 2026-04-20 14:26 | -12.44400 | -52.11847 | 38361 ft | 306 kts | 248° |
| 2026-04-20 14:27 | -12.45948 | -52.15898 | 38423 ft | 305 kts | 248° |
| 2026-04-20 14:27 | -12.47493 | -52.19951 | 38422 ft | 306 kts | 248° |
| 2026-04-20 14:28 | -12.49038 | -52.24012 | 38446 ft | 306 kts | 248° |
| 2026-04-20 14:28 | -12.50579 | -52.28074 | 38480 ft | 306 kts | 248° |
| 2026-04-20 14:29 | -12.52116 | -52.32135 | 38468 ft | 306 kts | 248° |
| 2026-04-20 14:29 | -12.53651 | -52.36203 | 38502 ft | 306 kts | 248° |
| 2026-04-20 14:30 | -12.54555 | -52.38601 | 38521 ft | 306 kts | 248° |
| 2026-04-20 14:30 | -12.56084 | -52.42666 | 38539 ft | 306 kts | 248° |
| 2026-04-20 14:31 | -12.57612 | -52.46739 | 38544 ft | 307 kts | 248° |
| 2026-04-20 14:31 | -12.59139 | -52.50822 | 38582 ft | 306 kts | 248° |
| 2026-04-20 14:32 | -12.60658 | -52.54895 | 38595 ft | 307 kts | 248° |
| 2026-04-20 14:32 | -12.62170 | -52.58953 | 38589 ft | 307 kts | 248° |
| 2026-04-20 14:33 | -12.63694 | -52.63053 | 38606 ft | 307 kts | 248° |
| 2026-04-20 14:33 | -12.65208 | -52.67138 | 38616 ft | 307 kts | 248° |
| 2026-04-20 14:34 | -12.66719 | -52.71226 | 38624 ft | 307 kts | 248° |
| 2026-04-20 14:34 | -12.68232 | -52.75327 | 38634 ft | 308 kts | 248° |
| 2026-04-20 14:35 | -12.69738 | -52.79421 | 38644 ft | 307 kts | 248° |
| 2026-04-20 14:35 | -12.71243 | -52.83524 | 38639 ft | 308 kts | 248° |
| 2026-04-20 14:36 | -12.72739 | -52.87604 | 38651 ft | 307 kts | 248° |
| 2026-04-20 14:36 | -12.74235 | -52.91703 | 38663 ft | 307 kts | 248° |
| 2026-04-20 14:37 | -12.75732 | -52.95812 | 38679 ft | 307 kts | 248° |
| 2026-04-20 14:37 | -12.77226 | -52.99922 | 38678 ft | 308 kts | 248° |
| 2026-04-20 14:38 | -12.78716 | -53.04031 | 38710 ft | 307 kts | 248° |
| 2026-04-20 14:38 | -12.80200 | -53.08136 | 38707 ft | 308 kts | 248° |
| 2026-04-20 14:39 | -12.81684 | -53.12249 | 38711 ft | 308 kts | 248° |
| 2026-04-20 14:39 | -12.83166 | -53.16367 | 38717 ft | 308 kts | 248° |
| 2026-04-20 14:40 | -12.84643 | -53.20482 | 38725 ft | 308 kts | 248° |
| 2026-04-20 14:40 | -12.86116 | -53.24594 | 38736 ft | 308 kts | 248° |
| 2026-04-20 14:41 | -12.87588 | -53.28712 | 38739 ft | 308 kts | 248° |
| 2026-04-20 14:41 | -12.89058 | -53.32835 | 38754 ft | 307 kts | 249° |
| 2026-04-20 14:42 | -12.90514 | -53.36932 | 38762 ft | 308 kts | 249° |
| 2026-04-20 14:42 | -12.91974 | -53.41049 | 38787 ft | 307 kts | 249° |
| 2026-04-20 14:43 | -12.93433 | -53.45174 | 38796 ft | 307 kts | 249° |
| 2026-04-20 14:43 | -12.94887 | -53.49292 | 38805 ft | 307 kts | 249° |
| 2026-04-20 14:44 | -12.96339 | -53.53415 | 38824 ft | 307 kts | 249° |
| 2026-04-20 14:44 | -12.97787 | -53.57538 | 38823 ft | 307 kts | 249° |
| 2026-04-20 14:45 | -12.99232 | -53.61660 | 38836 ft | 307 kts | 249° |
| 2026-04-20 14:45 | -13.00673 | -53.65782 | 38860 ft | 307 kts | 249° |
| 2026-04-20 14:46 | -13.02107 | -53.69897 | 38876 ft | 307 kts | 249° |
| 2026-04-20 14:46 | -13.03529 | -53.73986 | 38888 ft | 306 kts | 249° |
| 2026-04-20 14:47 | -13.04954 | -53.78095 | 38911 ft | 306 kts | 249° |
| 2026-04-20 14:48 | -13.07018 | -53.84061 | 38920 ft | 306 kts | 249° |
| 2026-04-20 14:48 | -13.08438 | -53.88180 | 38947 ft | 306 kts | 250° |
| 2026-04-20 14:49 | -13.09856 | -53.92301 | 38981 ft | 306 kts | 250° |
| 2026-04-20 14:49 | -13.11270 | -53.96419 | 39001 ft | 306 kts | 250° |
| 2026-04-20 14:50 | -13.12681 | -54.00546 | 39019 ft | 306 kts | 250° |
| 2026-04-20 14:50 | -13.14088 | -54.04670 | 39043 ft | 306 kts | 250° |
| 2026-04-20 14:51 | -13.15491 | -54.08791 | 39073 ft | 306 kts | 250° |
| 2026-04-20 14:51 | -13.16893 | -54.12916 | 39096 ft | 306 kts | 250° |
| 2026-04-20 14:52 | -13.18292 | -54.17044 | 39134 ft | 306 kts | 250° |
| 2026-04-20 14:52 | -13.19675 | -54.21137 | 39133 ft | 306 kts | 250° |
| 2026-04-20 14:53 | -13.21067 | -54.25264 | 39144 ft | 306 kts | 250° |
| 2026-04-20 14:53 | -13.22404 | -54.29244 | 39179 ft | 306 kts | 250° |
| 2026-04-20 14:54 | -13.23789 | -54.33372 | 39187 ft | 306 kts | 250° |
| 2026-04-20 14:54 | -13.24950 | -54.36840 | 39186 ft | 306 kts | 250° |
| 2026-04-20 14:55 | -13.26320 | -54.40946 | 39197 ft | 306 kts | 250° |
| 2026-04-20 14:55 | -13.27652 | -54.44947 | 39212 ft | 306 kts | 250° |
| 2026-04-20 14:56 | -13.29028 | -54.49092 | 39219 ft | 307 kts | 250° |
| 2026-04-20 14:56 | -13.30397 | -54.53234 | 39234 ft | 306 kts | 250° |
| 2026-04-20 14:57 | -13.31764 | -54.57374 | 39254 ft | 306 kts | 251° |
| 2026-04-20 14:57 | -13.33130 | -54.61516 | 39274 ft | 306 kts | 251° |
| 2026-04-20 14:58 | -13.34495 | -54.65670 | 39291 ft | 307 kts | 251° |
| 2026-04-20 14:58 | -13.35859 | -54.69830 | 39298 ft | 307 kts | 251° |
| 2026-04-20 14:59 | -13.37221 | -54.73994 | 39306 ft | 307 kts | 251° |
| 2026-04-20 14:59 | -13.38573 | -54.78137 | 39333 ft | 307 kts | 251° |
| 2026-04-20 15:00 | -13.39927 | -54.82301 | 39367 ft | 307 kts | 251° |
| 2026-04-20 15:00 | -13.41267 | -54.86435 | 39375 ft | 307 kts | 251° |
| 2026-04-20 15:01 | -13.42613 | -54.90599 | 39396 ft | 307 kts | 251° |
| 2026-04-20 15:01 | -13.43958 | -54.94768 | 39418 ft | 307 kts | 251° |
| 2026-04-20 15:02 | -13.45300 | -54.98936 | 39446 ft | 307 kts | 251° |
| 2026-04-20 15:02 | -13.46640 | -55.03113 | 39450 ft | 308 kts | 251° |
| 2026-04-20 15:03 | -13.47977 | -55.07289 | 39473 ft | 307 kts | 251° |
| 2026-04-20 15:03 | -13.49297 | -55.11423 | 39487 ft | 308 kts | 251° |
| 2026-04-20 15:04 | -13.50631 | -55.15609 | 39503 ft | 308 kts | 251° |
| 2026-04-20 15:04 | -13.51961 | -55.19797 | 39527 ft | 308 kts | 251° |
| 2026-04-20 15:05 | -13.53279 | -55.23953 | 39540 ft | 308 kts | 251° |
| 2026-04-20 15:05 | -13.54602 | -55.28135 | 39558 ft | 308 kts | 251° |
| 2026-04-20 15:06 | -13.55925 | -55.32327 | 39578 ft | 308 kts | 251° |
| 2026-04-20 15:06 | -13.57235 | -55.36493 | 39611 ft | 308 kts | 251° |
| 2026-04-20 15:07 | -13.58310 | -55.39924 | 39628 ft | 308 kts | 251° |
| 2026-04-20 15:07 | -13.59619 | -55.44101 | 39661 ft | 308 kts | 251° |
| 2026-04-20 15:08 | -13.60912 | -55.48238 | 39684 ft | 308 kts | 252° |
| 2026-04-20 15:08 | -13.62124 | -55.52141 | 39692 ft | 308 kts | 252° |
| 2026-04-20 15:09 | -13.63294 | -55.55911 | 39706 ft | 308 kts | 252° |
| 2026-04-20 15:09 | -13.64656 | -55.60105 | 39272 ft | 307 kts | 243° |
| 2026-04-20 15:09 | -13.65918 | -55.62020 | 37335 ft | 353 kts | 226° |
| 2026-04-20 15:10 | -13.67856 | -55.63689 | 36116 ft | 376 kts | 218° |
| 2026-04-20 15:10 | -13.70032 | -55.65287 | 34823 ft | 397 kts | 214° |
| 2026-04-20 15:10 | -13.72374 | -55.66877 | 33921 ft | 406 kts | 213° |
| 2026-04-20 15:10 | -13.74727 | -55.68444 | 33209 ft | 405 kts | 213° |
| 2026-04-20 15:11 | -13.77083 | -55.70037 | 31793 ft | 423 kts | 213° |
| 2026-04-20 15:11 | -13.79512 | -55.71742 | 31413 ft | 413 kts | 214° |
| 2026-04-20 15:11 | -13.81869 | -55.73407 | 30606 ft | 414 kts | 213° |
| 2026-04-20 15:11 | -13.84450 | -55.74784 | 29247 ft | 426 kts | 197° |
| 2026-04-20 15:12 | -13.87257 | -55.75384 | 27898 ft | 435 kts | 187° |
| 2026-04-20 15:12 | -13.90274 | -55.75890 | 26540 ft | 444 kts | 191° |
| 2026-04-20 15:12 | -13.93248 | -55.76841 | 25224 ft | 452 kts | 202° |
| 2026-04-20 15:12 | -13.95986 | -55.78483 | 23958 ft | 458 kts | 215° |
| 2026-04-20 15:13 | -13.98359 | -55.80717 | 22548 ft | 464 kts | 227° |
| 2026-04-20 15:13 | -14.00445 | -55.83046 | 21183 ft | 463 kts | 219° |
| 2026-04-20 15:13 | -14.02138 | -55.84251 | 20318 ft | 462 kts | 209° |
| 2026-04-20 15:13 | -14.04457 | -55.85514 | 19259 ft | 460 kts | 205° |
| 2026-04-20 15:14 | -14.07420 | -55.86737 | 18079 ft | 457 kts | 195° |
| 2026-04-20 15:14 | -14.10425 | -55.87305 | 17203 ft | 444 kts | 187° |
| 2026-04-20 15:14 | -14.13405 | -55.87675 | 16348 ft | 433 kts | 186° |
| 2026-04-20 15:14 | -14.16369 | -55.88067 | 15497 ft | 425 kts | 188° |
| 2026-04-20 15:15 | -14.19257 | -55.88553 | 14673 ft | 417 kts | 189° |
| 2026-04-20 15:15 | -14.22101 | -55.89081 | 13870 ft | 411 kts | 189° |
| 2026-04-20 15:15 | -14.24808 | -55.89560 | 13018 ft | 405 kts | 189° |
| 2026-04-20 15:15 | -14.27562 | -55.90045 | 12150 ft | 400 kts | 189° |
| 2026-04-20 15:16 | -14.30291 | -55.90527 | 11283 ft | 395 kts | 189° |
| 2026-04-20 15:16 | -14.32977 | -55.91001 | 10628 ft | 387 kts | 188° |
| 2026-04-20 15:16 | -14.35569 | -55.91456 | 10295 ft | 370 kts | 188° |
| 2026-04-20 15:16 | -14.38042 | -55.91890 | 10163 ft | 351 kts | 188° |
| 2026-04-20 15:17 | -14.40388 | -55.92304 | 10095 ft | 333 kts | 188° |
| 2026-04-20 15:17 | -14.42620 | -55.92696 | 10070 ft | 317 kts | 188° |
| 2026-04-20 15:17 | -14.44741 | -55.93069 | 10028 ft | 303 kts | 188° |
| 2026-04-20 15:17 | -14.46784 | -55.93426 | 10034 ft | 291 kts | 188° |
| 2026-04-20 15:18 | -14.48561 | -55.93749 | 10019 ft | 282 kts | 189° |
| 2026-04-20 15:18 | -14.50592 | -55.94138 | 10022 ft | 306 kts | 189° |
| 2026-04-20 15:18 | -14.52778 | -55.94547 | 10044 ft | 340 kts | 188° |
| 2026-04-20 15:18 | -14.55183 | -55.94986 | 10042 ft | 347 kts | 188° |
| 2026-04-20 15:19 | -14.57469 | -55.95395 | 10044 ft | 328 kts | 188° |
| 2026-04-20 15:19 | -14.59663 | -55.95785 | 10037 ft | 312 kts | 188° |
| 2026-04-20 15:19 | -14.61746 | -55.96151 | 10039 ft | 297 kts | 188° |
| 2026-04-20 15:19 | -14.63740 | -55.96503 | 10043 ft | 280 kts | 188° |
| 2026-04-20 15:20 | -14.65591 | -55.96822 | 10033 ft | 262 kts | 188° |
| 2026-04-20 15:20 | -14.67340 | -55.97117 | 10015 ft | 247 kts | 187° |
| 2026-04-20 15:20 | -14.68990 | -55.97394 | 10014 ft | 233 kts | 187° |
| 2026-04-20 15:20 | -14.70553 | -55.97663 | 10023 ft | 222 kts | 187° |
| 2026-04-20 15:21 | -14.72030 | -55.97921 | 9996 ft | 210 kts | 187° |
| 2026-04-20 15:21 | -14.73476 | -55.98168 | 10010 ft | 215 kts | 187° |
| 2026-04-20 15:21 | -14.75066 | -55.98429 | 10044 ft | 246 kts | 188° |
| 2026-04-20 15:21 | -14.76842 | -55.98757 | 10198 ft | 271 kts | 189° |
| 2026-04-20 15:22 | -14.78748 | -55.99119 | 10375 ft | 293 kts | 189° |
| 2026-04-20 15:22 | -14.80772 | -55.99495 | 10536 ft | 311 kts | 189° |
| 2026-04-20 15:22 | -14.82949 | -55.99891 | 10727 ft | 328 kts | 188° |
| 2026-04-20 15:22 | -14.85198 | -56.00294 | 10930 ft | 341 kts | 188° |
| 2026-04-20 15:23 | -14.87458 | -56.00698 | 11133 ft | 326 kts | 188° |
| 2026-04-20 15:23 | -14.89670 | -56.01086 | 11370 ft | 307 kts | 188° |
| 2026-04-20 15:23 | -14.91713 | -56.01447 | 11581 ft | 295 kts | 188° |
| 2026-04-20 15:23 | -14.93646 | -56.01764 | 11454 ft | 297 kts | 188° |
| 2026-04-20 15:24 | -14.95742 | -56.02108 | 11346 ft | 298 kts | 187° |
| 2026-04-20 15:24 | -14.97800 | -56.02138 | 11230 ft | 296 kts | 170° |
| 2026-04-20 15:24 | -14.99831 | -56.01787 | 11119 ft | 296 kts | 168° |
| 2026-04-20 15:24 | -15.01874 | -56.01439 | 10906 ft | 300 kts | 170° |
| 2026-04-20 15:25 | -15.03943 | -56.01180 | 10684 ft | 305 kts | 172° |
| 2026-04-20 15:25 | -15.06066 | -56.00977 | 10455 ft | 309 kts | 173° |
| 2026-04-20 15:25 | -15.08127 | -56.00790 | 10173 ft | 312 kts | 173° |
| 2026-04-20 15:25 | -15.10254 | -56.00583 | 9863 ft | 303 kts | 173° |
| 2026-04-20 15:26 | -15.12318 | -56.00379 | 9525 ft | 293 kts | 173° |
| 2026-04-20 15:26 | -15.14142 | -56.00217 | 9191 ft | 285 kts | 173° |
| 2026-04-20 15:26 | -15.16070 | -56.00040 | 8858 ft | 278 kts | 172° |
| 2026-04-20 15:26 | -15.17975 | -55.99862 | 8521 ft | 272 kts | 172° |
| 2026-04-20 15:27 | -15.19844 | -55.99688 | 8190 ft | 270 kts | 172° |
| 2026-04-20 15:27 | -15.21475 | -55.99537 | 7881 ft | 270 kts | 172° |
| 2026-04-20 15:27 | -15.23349 | -55.99349 | 7526 ft | 270 kts | 172° |
| 2026-04-20 15:27 | -15.25216 | -55.99168 | 7163 ft | 270 kts | 172° |
| 2026-04-20 15:28 | -15.27078 | -55.98980 | 6811 ft | 269 kts | 172° |
| 2026-04-20 15:28 | -15.28943 | -55.98796 | 6520 ft | 269 kts | 172° |
| 2026-04-20 15:28 | -15.30788 | -55.98604 | 6241 ft | 267 kts | 171° |
| 2026-04-20 15:28 | -15.32592 | -55.98411 | 5938 ft | 266 kts | 172° |
| 2026-04-20 15:29 | -15.34396 | -55.98216 | 5862 ft | 253 kts | 171° |
| 2026-04-20 15:29 | -15.36098 | -55.98036 | 5861 ft | 240 kts | 171° |
| 2026-04-20 15:29 | -15.37727 | -55.97875 | 5861 ft | 229 kts | 172° |
| 2026-04-20 15:29 | -15.39219 | -55.97728 | 5851 ft | 236 kts | 171° |
| 2026-04-20 15:30 | -15.40964 | -55.97550 | 5864 ft | 252 kts | 171° |
| 2026-04-20 15:30 | -15.42756 | -55.97371 | 5873 ft | 265 kts | 171° |
| 2026-04-20 15:30 | -15.44627 | -55.97179 | 5865 ft | 276 kts | 172° |
| 2026-04-20 15:30 | -15.46562 | -55.96994 | 5854 ft | 287 kts | 172° |
| 2026-04-20 15:31 | -15.48581 | -55.96807 | 5860 ft | 295 kts | 173° |
| 2026-04-20 15:31 | -15.50611 | -55.96633 | 5824 ft | 284 kts | 172° |
| 2026-04-20 15:31 | -15.52540 | -55.96453 | 5724 ft | 273 kts | 172° |
| 2026-04-20 15:31 | -15.54403 | -55.96268 | 5517 ft | 268 kts | 172° |
| 2026-04-20 15:32 | -15.56246 | -55.96081 | 5319 ft | 264 kts | 172° |
| 2026-04-20 15:32 | -15.58060 | -55.95898 | 5107 ft | 260 kts | 172° |
| 2026-04-20 15:32 | -15.59846 | -55.95723 | 4895 ft | 257 kts | 172° |
| 2026-04-20 15:32 | -15.61616 | -55.95546 | 4657 ft | 254 kts | 172° |
| 2026-04-20 15:33 | -15.63364 | -55.95366 | 4445 ft | 250 kts | 172° |
| 2026-04-20 15:33 | -15.65056 | -55.95181 | 4230 ft | 238 kts | 172° |
| 2026-04-20 15:33 | -15.66632 | -55.95020 | 4152 ft | 225 kts | 173° |
| 2026-04-20 15:33 | -15.68144 | -55.94862 | 4114 ft | 211 kts | 172° |
| 2026-04-20 15:34 | -15.69566 | -55.94729 | 4073 ft | 199 kts | 172° |
| 2026-04-20 15:34 | -15.70890 | -55.94597 | 4034 ft | 184 kts | 172° |
| 2026-04-20 15:34 | -15.72126 | -55.94484 | 4044 ft | 176 kts | 171° |
| 2026-04-20 15:34 | -15.73334 | -55.94357 | 4045 ft | 173 kts | 172° |
| 2026-04-20 15:35 | -15.74525 | -55.94228 | 4048 ft | 171 kts | 172° |
| 2026-04-20 15:35 | -15.75696 | -55.94125 | 4040 ft | 167 kts | 178° |
| 2026-04-20 15:35 | -15.76739 | -55.94567 | 4002 ft | 163 kts | 232° |
| 2026-04-20 15:35 | -15.77328 | -55.95533 | 4055 ft | 160 kts | 243° |
| 2026-04-20 15:36 | -15.77850 | -55.96564 | 4031 ft | 160 kts | 244° |
| 2026-04-20 15:36 | -15.78353 | -55.97600 | 4156 ft | 162 kts | 246° |
| 2026-04-20 15:36 | -15.78880 | -55.98717 | 4199 ft | 186 kts | 244° |
| 2026-04-20 15:36 | -15.79502 | -55.99973 | 4224 ft | 205 kts | 244° |
| 2026-04-20 15:37 | -15.80169 | -56.01336 | 4233 ft | 219 kts | 246° |
| 2026-04-20 15:37 | -15.80432 | -56.02922 | 4015 ft | 237 kts | 282° |
| 2026-04-20 15:37 | -15.79688 | -56.04391 | 3747 ft | 225 kts | 321° |
| 2026-04-20 15:37 | -15.78346 | -56.05118 | 3519 ft | 211 kts | 342° |
| 2026-04-20 15:38 | -15.76989 | -56.05626 | 3154 ft | 206 kts | 342° |
| 2026-04-20 15:38 | -15.75693 | -56.06169 | 2759 ft | 196 kts | 338° |
| 2026-04-20 15:38 | -15.74500 | -56.06732 | 2584 ft | 178 kts | 336° |
| 2026-04-20 15:38 | -15.73459 | -56.07280 | 2397 ft | 155 kts | 335° |
| 2026-04-20 15:39 | -15.72568 | -56.07756 | 2303 ft | 134 kts | 335° |
| 2026-04-20 15:39 | -15.71783 | -56.08194 | 1967 ft | 120 kts | 332° |
| 2026-04-20 15:39 | -15.71095 | -56.08590 | 1577 ft | 114 kts | 335° |
| 2026-04-20 15:39 | -15.70337 | -56.08984 | 1350 ft | 123 kts | 334° |
| 2026-04-20 15:40 | -15.69579 | -56.09418 | 1273 ft | 130 kts | 332° |
| 2026-04-20 15:40 | -15.69036 | -56.09689 | 1199 ft | 132 kts | 336° |
| 2026-04-20 15:40 | -15.68196 | -56.10129 | 1123 ft | 139 kts | 334° |
| 2026-04-20 15:40 | -15.67016 | -56.10755 | 829 ft | 138 kts | 334° |
| 2026-04-20 15:41 | -15.66484 | -56.11035 | 687 ft | 121 kts | 333° |
| 2026-04-20 15:41 | -15.65677 | -56.11467 | 596 ft | 79 kts | 333° |
| 2026-04-20 15:41 | -15.65396 | -56.11617 | 597 ft | 50 kts | 333° |
| 2026-04-20 15:41 | -15.65219 | -56.11716 | 596 ft | 21 kts | 311° |
| 2026-04-20 15:42 | -15.65220 | -56.11820 | 596 ft | 14 kts | 286° |
| 2026-04-20 15:42 | -15.65135 | -56.11883 | 595 ft | 17 kts | 332° |
| 2026-04-20 15:42 | -15.65071 | -56.11917 | 595 ft | 0 kts | 310° |
| 2026-04-20 15:42 | -15.65070 | -56.11924 | 595 ft | 2 kts | 271° |
| 2026-04-20 15:43 | -15.65077 | -56.11951 | 595 ft | 1 kts | 244° |
| 2026-04-20 15:43 | -15.65081 | -56.11960 | 595 ft | 0 kts | 243° |